createdAt,value
2019-02-12T00:01:02.020Z,7.37
2019-02-12T00:03:31.194Z,7.57
2019-02-12T00:06:00.325Z,6.93
2019-02-12T00:08:29.569Z,6.90
2019-02-12T00:10:58.863Z,7.33
2019-02-12T00:13:28.074Z,7.27
2019-02-12T00:15:57.342Z,6.87
2019-02-12T00:18:26.566Z,6.50
2019-02-12T00:20:55.716Z,7.00
2019-02-12T00:23:24.951Z,5.97
2019-02-12T00:25:54.162Z,6.00
2019-02-12T00:28:23.377Z,7.00
2019-02-12T00:30:52.549Z,6.20
2019-02-12T00:33:21.798Z,8.33
2019-02-12T00:35:50.981Z,6.30
2019-02-12T00:38:20.156Z,6.70
2019-02-12T00:40:49.335Z,6.40
2019-02-12T00:43:18.586Z,6.80
2019-02-12T00:45:47.710Z,7.17
2019-02-12T00:48:16.866Z,7.03
2019-02-12T00:50:46.010Z,6.00
2019-02-12T00:53:15.227Z,6.47
2019-02-12T00:55:44.467Z,6.73
2019-02-12T00:58:13.710Z,6.93
2019-02-12T01:00:42.829Z,6.53
2019-02-12T01:03:12.037Z,6.60
2019-02-12T01:05:41.192Z,6.50
2019-02-12T01:08:10.429Z,6.40
2019-02-12T01:10:39.654Z,6.20
2019-02-12T01:13:08.805Z,5.83
2019-02-12T01:15:37.947Z,5.97
2019-02-12T01:18:07.111Z,5.67
2019-02-12T01:20:36.262Z,5.73
2019-02-12T01:23:05.483Z,5.73
2019-02-12T01:25:34.657Z,6.03
2019-02-12T01:28:03.800Z,5.30
2019-02-12T01:30:32.972Z,5.00
2019-02-12T01:33:02.158Z,4.67
2019-02-12T01:35:31.364Z,4.53
2019-02-12T01:38:00.588Z,4.53
2019-02-12T01:40:30.209Z,4.70
2019-02-12T01:43:05.325Z,4.40
2019-02-12T01:45:34.458Z,4.30
2019-02-12T01:48:03.643Z,4.83
2019-02-12T01:50:32.869Z,4.93
2019-02-12T01:53:02.070Z,5.47
2019-02-12T01:55:31.210Z,4.87
2019-02-12T01:58:00.441Z,4.70
2019-02-12T02:00:29.845Z,4.23
2019-02-12T02:02:59.091Z,3.70
2019-02-12T02:05:28.299Z,3.80
2019-02-12T02:07:57.533Z,4.53
2019-02-12T02:10:26.686Z,3.80
2019-02-12T02:12:55.924Z,3.60
2019-02-12T02:15:25.175Z,3.60
2019-02-12T02:17:54.306Z,3.30
2019-02-12T02:20:23.430Z,3.90
2019-02-12T02:22:52.698Z,3.13
2019-02-12T02:25:21.830Z,3.40
2019-02-12T02:27:50.986Z,3.47
2019-02-12T02:30:20.155Z,3.60
2019-02-12T02:32:49.407Z,3.27
2019-02-12T02:35:18.618Z,3.00
2019-02-12T02:37:47.757Z,2.90
2019-02-12T02:40:16.942Z,3.00
2019-02-12T02:42:46.083Z,2.97
2019-02-12T02:45:15.314Z,2.87
2019-02-12T02:47:44.457Z,3.13
2019-02-12T02:50:13.604Z,2.70
2019-02-12T02:52:42.765Z,2.53
2019-02-12T02:55:11.906Z,2.90
2019-02-12T02:57:41.225Z,3.63
2019-02-12T03:00:10.582Z,3.03
2019-02-12T03:02:39.717Z,3.13
2019-02-12T03:05:09.990Z,3.20
2019-02-12T03:07:39.231Z,2.70
2019-02-12T03:10:08.796Z,2.63
2019-02-12T03:12:37.991Z,3.10
2019-02-12T03:15:08.167Z,3.03
2019-02-12T03:17:37.318Z,3.60
2019-02-12T03:20:07.746Z,3.60
2019-02-12T03:22:36.890Z,3.10
2019-02-12T03:25:06.357Z,2.90
2019-02-12T03:27:35.522Z,3.13
2019-02-12T03:30:05.191Z,3.07
2019-02-12T03:32:34.393Z,2.50
2019-02-12T03:35:03.794Z,2.80
2019-02-12T03:37:32.938Z,2.70
2019-02-12T03:40:02.087Z,2.67
2019-02-12T03:42:31.214Z,2.77
2019-02-12T03:45:00.531Z,2.70
2019-02-12T03:47:29.791Z,2.20
2019-02-12T03:49:59.059Z,2.57
2019-02-12T03:52:28.215Z,2.20
2019-02-12T03:54:57.394Z,2.60
2019-02-12T03:57:26.522Z,2.70
2019-02-12T03:59:55.854Z,3.07
2019-02-12T04:02:25.050Z,4.70
2019-02-12T04:04:54.195Z,4.13
2019-02-12T04:07:23.329Z,3.90
2019-02-12T04:09:52.482Z,3.23
2019-02-12T04:12:21.706Z,3.20
2019-02-12T04:14:50.898Z,3.30
2019-02-12T04:17:20.031Z,3.40
2019-02-12T04:19:49.177Z,3.17
2019-02-12T04:22:22.533Z,3.40
2019-02-12T04:24:49.198Z,3.33
2019-02-12T04:27:18.405Z,3.47
2019-02-12T04:29:47.570Z,3.40
2019-02-12T04:32:16.716Z,3.40
2019-02-12T04:34:45.879Z,3.20
2019-02-12T04:37:15.025Z,3.20
2019-02-12T04:39:44.156Z,3.10
2019-02-12T04:42:13.296Z,3.40
2019-02-12T04:44:42.422Z,3.03
2019-02-12T04:47:11.563Z,3.90
2019-02-12T04:49:40.702Z,3.40
2019-02-12T04:52:09.830Z,3.80
2019-02-12T04:54:38.989Z,4.17
2019-02-12T04:57:08.131Z,4.20
2019-02-12T04:59:37.313Z,4.47
2019-02-12T05:02:06.486Z,4.60
2019-02-12T05:04:35.610Z,5.10
2019-02-12T05:07:04.814Z,5.17
2019-02-12T05:09:34.864Z,5.00
2019-02-12T05:12:06.023Z,4.47
2019-02-12T05:14:35.293Z,4.03
2019-02-12T05:17:04.463Z,4.30
2019-02-12T05:19:33.682Z,4.70
2019-02-12T05:22:02.816Z,4.43
2019-02-12T05:24:31.942Z,5.13
2019-02-12T05:27:01.107Z,5.10
2019-02-12T05:29:30.248Z,5.03
2019-02-12T05:31:59.450Z,5.20
2019-02-12T05:34:28.600Z,5.03
2019-02-12T05:36:57.843Z,5.37
2019-02-12T05:39:26.992Z,6.30
2019-02-12T05:41:56.110Z,6.80
2019-02-12T05:44:25.392Z,6.53
2019-02-12T05:46:54.563Z,6.77
2019-02-12T05:49:23.708Z,6.53
2019-02-12T05:51:52.880Z,6.40
2019-02-12T05:54:22.031Z,8.03
2019-02-12T05:56:51.210Z,8.20
2019-02-12T05:59:20.382Z,9.00
2019-02-12T06:01:49.609Z,8.63
2019-02-12T06:04:18.782Z,7.67
2019-02-12T06:06:47.913Z,7.47
2019-02-12T06:09:17.138Z,7.53
2019-02-12T06:11:52.743Z,8.17
2019-02-12T06:14:21.946Z,8.30
2019-02-12T06:16:51.139Z,8.07
2019-02-12T06:19:20.298Z,7.90
2019-02-12T06:21:49.541Z,8.23
2019-02-12T06:24:18.675Z,9.30
2019-02-12T06:26:47.886Z,9.40
2019-02-12T06:29:17.121Z,9.50
2019-02-12T06:31:46.318Z,9.60
2019-02-12T06:34:15.545Z,9.87
2019-02-12T06:36:44.678Z,11.20
2019-02-12T06:39:13.851Z,10.53
2019-02-12T06:41:43.081Z,10.23
2019-02-12T06:44:12.303Z,8.70
2019-02-12T06:46:41.470Z,9.20
2019-02-12T06:49:10.682Z,10.03
2019-02-12T06:51:39.901Z,11.03
2019-02-12T06:54:09.048Z,13.27
2019-02-12T06:56:38.192Z,13.10
2019-02-12T06:59:07.418Z,11.20
2019-02-12T07:01:36.574Z,11.50
2019-02-12T07:04:29.711Z,8.97
2019-02-12T07:07:47.774Z,10.03
2019-02-12T07:10:26.875Z,8.83
2019-02-12T07:13:24.891Z,8.93
2019-02-12T07:16:19.408Z,8.30
2019-02-12T07:19:15.182Z,7.60
2019-02-12T07:22:09.914Z,6.97
2019-02-12T07:24:59.334Z,7.87
2019-02-12T07:28:08.637Z,10.70
2019-02-12T07:31:03.565Z,8.27
2019-02-12T07:34:02.834Z,8.63
2019-02-12T07:37:02.636Z,8.83
2019-02-12T07:39:56.638Z,8.93
2019-02-12T07:43:13.429Z,8.67
2019-02-12T07:46:16.836Z,8.80
2019-02-12T07:49:14.312Z,7.30
2019-02-12T07:52:36.094Z,7.27
2019-02-12T07:55:20.662Z,8.07
2019-02-12T07:58:29.538Z,7.80
2019-02-12T08:01:16.803Z,8.43
2019-02-12T08:04:24.624Z,7.80
2019-02-12T08:07:33.993Z,7.90
2019-02-12T08:10:34.890Z,8.40
2019-02-12T08:14:00.483Z,7.70
2019-02-12T08:17:10.025Z,6.70
2019-02-12T08:20:35.754Z,9.07
2019-02-12T08:23:41.109Z,7.80
2019-02-12T08:26:42.368Z,7.60
2019-02-12T08:29:34.337Z,6.50
2019-02-12T08:32:39.950Z,6.57
2019-02-12T08:35:42.494Z,7.73
2019-02-12T08:38:35.509Z,8.80
2019-02-12T08:41:55.378Z,9.27
2019-02-12T08:44:52.845Z,7.23
2019-02-12T08:47:57.866Z,7.10
2019-02-12T08:51:08.691Z,7.67
2019-02-12T08:54:14.840Z,6.60
2019-02-12T08:57:03.039Z,8.07
2019-02-12T08:59:58.337Z,8.67
2019-02-12T09:03:07.943Z,8.57
2019-02-12T09:06:08.458Z,9.17
2019-02-12T09:08:55.209Z,8.80
2019-02-12T09:11:49.711Z,8.13
2019-02-12T09:15:06.577Z,8.53
2019-02-12T09:18:13.854Z,9.13
2019-02-12T09:21:26.009Z,8.70
2019-02-12T09:24:20.018Z,7.93
2019-02-12T09:27:15.665Z,7.40
2019-02-12T09:30:07.911Z,8.10
2019-02-12T09:33:07.145Z,6.70
2019-02-12T09:35:59.366Z,7.13
2019-02-12T09:38:53.418Z,5.33
2019-02-12T09:41:50.950Z,6.03
2019-02-12T09:45:03.126Z,7.10
2019-02-12T09:48:18.706Z,7.50
2019-02-12T09:51:17.975Z,5.60
2019-02-12T09:54:11.458Z,6.47
2019-02-12T09:57:21.693Z,6.10
2019-02-12T10:00:30.679Z,5.23
2019-02-12T10:03:23.518Z,6.40
2019-02-12T10:06:26.705Z,8.53
2019-02-12T10:09:51.822Z,7.70
2019-02-12T10:13:03.245Z,6.47
2019-02-12T10:16:22.304Z,7.20
2019-02-12T10:19:44.318Z,5.90
2019-02-12T10:22:38.125Z,7.00
2019-02-12T10:25:34.459Z,12.40
2019-02-12T10:28:48.412Z,8.83
2019-02-12T10:31:40.827Z,7.27
2019-02-12T10:34:10.357Z,6.70
2019-02-12T10:36:39.549Z,9.97
2019-02-12T10:39:13.648Z,8.63
2019-02-12T10:41:42.988Z,8.17
2019-02-12T10:44:12.154Z,9.87
2019-02-12T10:46:41.405Z,9.27
2019-02-12T10:49:10.631Z,9.00
2019-02-12T10:51:39.919Z,11.10
2019-02-12T10:54:09.142Z,13.53
2019-02-12T10:56:38.306Z,10.67
2019-02-12T10:59:07.450Z,10.63
2019-02-12T11:01:36.599Z,10.00
2019-02-12T11:04:05.772Z,11.47
2019-02-12T11:06:35.058Z,9.33
2019-02-12T11:09:05.470Z,8.37
2019-02-12T11:11:34.681Z,7.73
2019-02-12T11:14:03.905Z,8.83
2019-02-12T11:16:33.238Z,10.17
2019-02-12T11:19:02.569Z,8.13
2019-02-12T11:21:31.809Z,7.17
2019-02-12T11:24:00.997Z,7.63
2019-02-12T11:26:31.330Z,6.87
2019-02-12T11:29:00.497Z,7.43
2019-02-12T11:31:29.631Z,8.23
2019-02-12T11:33:58.794Z,8.13
2019-02-12T11:36:27.963Z,7.67
2019-02-12T11:38:57.186Z,9.03
2019-02-12T11:41:26.329Z,14.40
2019-02-12T11:43:55.503Z,9.27
2019-02-12T11:46:24.637Z,6.33
2019-02-12T11:48:53.773Z,7.50
2019-02-12T11:51:22.895Z,7.27
2019-02-12T11:53:52.140Z,9.47
2019-02-12T11:56:21.286Z,8.83
2019-02-12T11:58:50.466Z,6.67
2019-02-12T12:01:22.861Z,6.40
2019-02-12T12:03:52.064Z,5.40
2019-02-12T12:06:21.257Z,7.47
2019-02-12T12:08:50.583Z,7.80
2019-02-12T12:11:19.787Z,7.93
2019-02-12T12:13:49.008Z,8.60
2019-02-12T12:16:18.235Z,7.43
2019-02-12T12:18:47.378Z,5.93
2019-02-12T12:21:16.535Z,6.30
2019-02-12T12:23:45.773Z,5.87
2019-02-12T12:26:14.962Z,7.50
2019-02-12T12:28:44.316Z,9.70
2019-02-12T12:31:13.450Z,7.23
2019-02-12T12:33:42.613Z,7.83
2019-02-12T12:36:11.746Z,6.97
2019-02-12T12:38:40.981Z,7.03
2019-02-12T12:41:10.338Z,7.80
2019-02-12T12:43:39.466Z,6.30
2019-02-12T12:46:08.622Z,7.00
2019-02-12T12:48:37.763Z,7.40
2019-02-12T12:51:06.949Z,9.37
2019-02-12T12:53:36.139Z,9.00
2019-02-12T12:56:05.266Z,7.47
2019-02-12T12:58:34.398Z,7.83
2019-02-12T13:01:03.550Z,6.80
2019-02-12T13:03:32.677Z,9.10
2019-02-12T13:06:01.901Z,7.40
2019-02-12T13:08:31.112Z,6.20
2019-02-12T13:11:00.297Z,6.50
2019-02-12T13:13:29.446Z,8.00
2019-02-12T13:15:58.746Z,8.47
2019-02-12T13:18:27.870Z,8.50
2019-02-12T13:20:57.030Z,6.07
2019-02-12T13:23:26.201Z,6.00
2019-02-12T13:25:55.375Z,6.60
2019-02-12T13:28:24.498Z,8.03
2019-02-12T13:30:53.734Z,7.03
2019-02-12T13:33:22.867Z,5.43
2019-02-12T13:35:52.069Z,6.53
2019-02-12T13:38:21.202Z,9.57
2019-02-12T13:40:50.326Z,7.63
2019-02-12T13:43:19.505Z,6.97
2019-02-12T13:45:48.630Z,6.60
2019-02-12T13:48:17.849Z,8.07
2019-02-12T13:50:47.015Z,7.17
2019-02-12T13:53:16.150Z,6.70
2019-02-12T13:55:45.340Z,6.17
2019-02-12T13:58:14.462Z,7.10
2019-02-12T14:00:43.614Z,7.53
2019-02-12T14:03:12.990Z,8.67
2019-02-12T14:05:42.198Z,6.60
2019-02-12T14:08:11.324Z,7.03
2019-02-12T14:10:40.518Z,7.37
2019-02-12T14:13:09.654Z,7.50
2019-02-12T14:15:38.822Z,8.40
2019-02-12T14:18:08.087Z,7.57
2019-02-12T14:20:37.297Z,7.50
2019-02-12T14:23:06.431Z,7.20
2019-02-12T14:25:35.578Z,7.60
2019-02-12T14:28:04.829Z,8.10
2019-02-12T14:30:34.001Z,9.37
2019-02-12T14:33:03.228Z,9.83
2019-02-12T14:35:32.444Z,8.67
2019-02-12T14:38:01.605Z,8.17
2019-02-12T14:40:30.894Z,7.50
2019-02-12T14:43:00.082Z,6.80
2019-02-12T14:45:29.233Z,7.27
2019-02-12T14:47:58.409Z,10.97
2019-02-12T14:50:27.573Z,7.97
2019-02-12T14:52:56.698Z,9.40
2019-02-12T14:55:33.389Z,10.57
2019-02-12T14:57:57.388Z,10.13
2019-02-12T15:00:26.773Z,11.17
2019-02-12T15:02:55.967Z,8.67
2019-02-12T15:05:25.162Z,8.83
2019-02-12T15:07:54.332Z,13.37
2019-02-12T15:10:23.582Z,11.57
2019-02-12T15:12:52.814Z,9.00
2019-02-12T15:15:22.219Z,12.43
2019-02-12T15:17:51.434Z,8.07
2019-02-12T15:20:20.662Z,10.10
2019-02-12T15:22:49.829Z,14.57
2019-02-12T15:25:18.962Z,12.00
2019-02-12T15:27:48.137Z,9.30
2019-02-12T15:30:17.362Z,9.17
2019-02-12T15:32:46.582Z,11.53
2019-02-12T15:35:15.714Z,11.47
2019-02-12T15:37:44.897Z,12.10
2019-02-12T15:40:14.362Z,12.57
2019-02-12T15:42:43.742Z,10.00
2019-02-12T15:45:14.787Z,13.10
2019-02-12T15:47:43.986Z,9.80
2019-02-12T15:50:13.145Z,14.07
2019-02-12T15:52:42.326Z,11.90
2019-02-12T15:55:12.287Z,12.20
2019-02-12T15:57:45.149Z,10.63
2019-02-12T16:00:18.073Z,12.30
2019-02-12T16:02:47.085Z,10.63
2019-02-12T16:05:16.260Z,10.40
2019-02-12T16:07:47.458Z,12.23
2019-02-12T16:10:19.245Z,12.73
2019-02-12T16:12:48.924Z,11.60
2019-02-12T16:15:21.522Z,13.97
2019-02-12T16:17:49.869Z,14.13
2019-02-12T16:20:19.105Z,13.60
2019-02-12T16:22:48.431Z,17.50
2019-02-12T16:25:17.718Z,11.67
2019-02-12T16:27:47.069Z,11.43
2019-02-12T16:30:17.174Z,13.70
2019-02-12T16:32:46.430Z,10.20
2019-02-12T16:35:16.111Z,13.53
2019-02-12T16:37:45.383Z,13.00
2019-02-12T16:40:14.723Z,12.87
2019-02-12T16:42:43.978Z,13.80
2019-02-12T16:45:15.982Z,13.43
2019-02-12T16:47:45.143Z,12.97
2019-02-12T16:50:14.303Z,13.10
2019-02-12T16:52:43.535Z,13.07
2019-02-12T16:55:12.746Z,13.97
2019-02-12T16:57:41.958Z,14.90
2019-02-12T17:00:13.693Z,12.70
2019-02-12T17:02:42.941Z,12.83
2019-02-12T17:05:12.844Z,11.33
2019-02-12T17:07:43.105Z,10.60
2019-02-12T17:10:12.363Z,10.33
2019-02-12T17:12:41.646Z,13.73
2019-02-12T17:15:10.934Z,15.03
2019-02-12T17:17:40.169Z,11.67
2019-02-12T17:20:12.150Z,10.70
2019-02-12T17:22:41.654Z,11.17
2019-02-12T17:25:11.208Z,10.83
2019-02-12T17:27:40.354Z,10.53
2019-02-12T17:30:11.163Z,10.47
2019-02-12T17:32:40.354Z,15.07
2019-02-12T17:35:09.868Z,14.30
2019-02-12T17:37:39.021Z,16.50
2019-02-12T17:40:09.570Z,14.80
2019-02-12T17:42:38.787Z,15.97
2019-02-12T17:45:09.876Z,17.73
2019-02-12T17:47:39.022Z,14.07
2019-02-12T17:50:09.221Z,12.53
2019-02-12T17:52:38.389Z,14.40
2019-02-12T17:55:07.544Z,13.53
2019-02-12T17:57:36.697Z,15.10
2019-02-12T18:00:11.478Z,14.57
2019-02-12T18:02:41.633Z,13.30
2019-02-12T18:05:10.908Z,12.90
2019-02-12T18:07:40.047Z,11.27
2019-02-12T18:10:09.279Z,13.67
2019-02-12T18:12:38.533Z,12.90
2019-02-12T18:15:08.459Z,11.47
2019-02-12T18:17:37.602Z,11.90
2019-02-12T18:20:07.659Z,15.43
2019-02-12T18:22:36.853Z,13.13
2019-02-12T18:25:06.626Z,12.53
2019-02-12T18:27:35.918Z,13.60
2019-02-12T18:30:06.859Z,14.00
2019-02-12T18:32:35.997Z,16.03
2019-02-12T18:35:05.311Z,15.13
2019-02-12T18:37:34.454Z,15.73
2019-02-12T18:40:03.782Z,10.03
2019-02-12T18:42:32.962Z,13.53
2019-02-12T18:45:02.117Z,13.70
2019-02-12T18:47:31.358Z,14.40
2019-02-12T18:50:00.534Z,16.87
2019-02-12T18:52:29.718Z,13.70
2019-02-12T18:54:58.858Z,13.47
2019-02-12T18:57:28.030Z,15.07
2019-02-12T18:59:57.230Z,13.40
2019-02-12T19:02:26.392Z,14.30
2019-02-12T19:04:55.554Z,12.27
2019-02-12T19:07:24.738Z,13.43
2019-02-12T19:09:53.989Z,15.07
2019-02-12T19:12:23.337Z,16.17
2019-02-12T19:14:52.544Z,21.83
2019-02-12T19:17:21.710Z,19.37
2019-02-12T19:19:50.850Z,16.67
2019-02-12T19:22:20.006Z,16.23
2019-02-12T19:24:49.170Z,16.93
2019-02-12T19:27:18.303Z,18.07
2019-02-12T19:29:47.479Z,17.13
2019-02-12T19:32:16.645Z,20.43
2019-02-12T19:34:45.799Z,19.77
2019-02-12T19:37:14.968Z,19.63
2019-02-12T19:39:44.341Z,21.57
2019-02-12T19:42:15.114Z,18.53
2019-02-12T19:44:44.294Z,20.30
2019-02-12T19:47:13.538Z,18.43
2019-02-12T19:49:42.693Z,19.97
2019-02-12T19:52:11.934Z,18.80
2019-02-12T19:54:41.129Z,18.73
2019-02-12T19:57:10.654Z,21.83
2019-02-12T19:59:40.038Z,21.03
2019-02-12T20:02:09.186Z,21.63
2019-02-12T20:04:38.406Z,20.23
2019-02-12T20:07:07.788Z,16.53
2019-02-12T20:09:36.932Z,16.77
2019-02-12T20:12:06.111Z,15.43
2019-02-12T20:14:35.350Z,17.70
2019-02-12T20:17:04.518Z,18.90
2019-02-12T20:19:33.653Z,19.47
2019-02-12T20:22:02.821Z,20.00
2019-02-12T20:24:31.991Z,20.87
2019-02-12T20:27:06.410Z,19.83
2019-02-12T20:29:32.102Z,22.60
2019-02-12T20:32:01.321Z,23.03
2019-02-12T20:34:30.718Z,21.50
2019-02-12T20:36:59.991Z,22.23
2019-02-12T20:39:29.147Z,21.03
2019-02-12T20:41:58.299Z,22.60
2019-02-12T20:44:27.466Z,21.90
2019-02-12T20:46:56.630Z,22.53
2019-02-12T20:49:25.910Z,18.97
2019-02-12T20:51:55.045Z,19.43
2019-02-12T20:54:24.196Z,20.70
2019-02-12T20:56:53.370Z,19.33
2019-02-12T20:59:22.570Z,18.57
2019-02-12T21:01:51.746Z,20.77
2019-02-12T21:04:20.886Z,21.57
2019-02-12T21:06:50.085Z,22.07
2019-02-12T21:09:19.234Z,24.53
2019-02-12T21:11:48.389Z,23.97
2019-02-12T21:14:17.533Z,22.47
2019-02-12T21:16:46.662Z,25.13
2019-02-12T21:19:15.889Z,23.57
2019-02-12T21:21:45.058Z,25.03
2019-02-12T21:24:14.289Z,25.93
2019-02-12T21:26:43.422Z,26.67
2019-02-12T21:29:12.569Z,25.53
2019-02-12T21:31:41.774Z,26.27
2019-02-12T21:34:11.075Z,24.33
2019-02-12T21:36:40.291Z,26.63
2019-02-12T21:39:10.805Z,24.77
2019-02-12T21:41:39.998Z,26.53
2019-02-12T21:44:09.151Z,24.57
2019-02-12T21:46:38.306Z,25.17
2019-02-12T21:49:07.483Z,28.20
2019-02-12T21:51:36.619Z,24.40
2019-02-12T21:54:05.755Z,26.97
2019-02-12T21:56:34.926Z,26.00
2019-02-12T21:59:04.109Z,24.27
2019-02-12T22:01:33.334Z,24.30
2019-02-12T22:04:02.462Z,24.30
2019-02-12T22:06:31.730Z,22.93
2019-02-12T22:09:01.563Z,23.50
2019-02-12T22:11:30.766Z,23.77
2019-02-12T22:14:00.018Z,21.37
2019-02-12T22:16:29.201Z,24.30
2019-02-12T22:18:58.365Z,25.30
2019-02-12T22:21:27.534Z,24.87
2019-02-12T22:23:56.777Z,23.00
2019-02-12T22:26:25.942Z,22.63
2019-02-12T22:28:55.086Z,23.93
2019-02-12T22:31:24.242Z,20.83
2019-02-12T22:33:53.402Z,20.50
2019-02-12T22:36:22.596Z,19.73
2019-02-12T22:38:51.789Z,19.67
2019-02-12T22:41:20.943Z,19.00
2019-02-12T22:43:50.204Z,18.30
2019-02-12T22:46:20.002Z,17.40
2019-02-12T22:48:49.542Z,16.90
2019-02-12T22:51:18.781Z,19.07
2019-02-12T22:53:48.060Z,17.57
2019-02-12T22:56:17.229Z,17.27
2019-02-12T22:58:46.384Z,17.33
2019-02-12T23:01:15.791Z,16.70
2019-02-12T23:03:44.919Z,15.50
2019-02-12T23:06:14.203Z,15.00
2019-02-12T23:08:43.374Z,14.37
2019-02-12T23:11:12.555Z,13.63
2019-02-12T23:13:41.691Z,12.70
2019-02-12T23:16:10.987Z,13.13
2019-02-12T23:18:40.123Z,12.63
2019-02-12T23:21:09.321Z,12.60
2019-02-12T23:23:38.438Z,11.27
2019-02-12T23:26:08.334Z,11.80
2019-02-12T23:28:37.522Z,12.10
2019-02-12T23:31:06.693Z,11.67
2019-02-12T23:33:36.089Z,11.70
2019-02-12T23:36:05.378Z,13.20
2019-02-12T23:38:34.656Z,13.40
2019-02-12T23:41:03.780Z,15.17
2019-02-12T23:43:33.003Z,16.13
2019-02-12T23:46:02.166Z,15.10
2019-02-12T23:48:31.306Z,16.30
2019-02-12T23:51:00.514Z,14.27
2019-02-12T23:53:29.655Z,12.90
2019-02-12T23:55:58.782Z,13.43
2019-02-12T23:58:28.030Z,14.30
